sensor_id;sensor_type;location;lat;lon;timestamp;temperature;humidity
1948;DHT22;974;52.400;9.818;2023-12-07T00:01:32;2.40;99.90
1948;DHT22;974;52.400;9.818;2023-12-07T00:04:00;2.40;99.90
1948;DHT22;974;52.400;9.818;2023-12-07T00:06:25;2.40;99.90
1948;DHT22;974;52.400;9.818;2023-12-07T00:08:52;2.40;99.90
1948;DHT22;974;52.400;9.818;2023-12-07T00:11:17;2.40;99.90
1948;DHT22;974;52.400;9.818;2023-12-07T00:13:46;2.40;99.90
1948;DHT22;974;52.400;9.818;2023-12-07T00:16:12;2.40;99.90
1948;DHT22;974;52.400;9.818;2023-12-07T00:18:37;2.30;99.90
1948;DHT22;974;52.400;9.818;2023-12-07T00:21:09;2.30;99.90
1948;DHT22;974;52.400;9.818;2023-12-07T00:23:38;2.40;99.90
1948;DHT22;974;52.400;9.818;2023-12-07T00:26:04;2.40;99.90
1948;DHT22;974;52.400;9.818;2023-12-07T00:28:30;2.40;99.90
1948;DHT22;974;52.400;9.818;2023-12-07T00:30:56;2.40;99.90
1948;DHT22;974;52.400;9.818;2023-12-07T00:33:24;2.40;99.90
1948;DHT22;974;52.400;9.818;2023-12-07T00:35:50;2.50;99.90
1948;DHT22;974;52.400;9.818;2023-12-07T00:38:15;2.40;99.90
1948;DHT22;974;52.400;9.818;2023-12-07T00:40:41;2.40;99.90
1948;DHT22;974;52.400;9.818;2023-12-07T00:43:09;2.40;99.90
1948;DHT22;974;52.400;9.818;2023-12-07T00:45:35;2.40;99.90
1948;DHT22;974;52.400;9.818;2023-12-07T00:48:01;2.40;99.90
1948;DHT22;974;52.400;9.818;2023-12-07T00:50:26;2.40;99.90
1948;DHT22;974;52.400;9.818;2023-12-07T00:52:52;2.40;99.90
1948;DHT22;974;52.400;9.818;2023-12-07T00:55:17;2.40;99.90
1948;DHT22;974;52.400;9.818;2023-12-07T00:57:43;2.40;99.90
1948;DHT22;974;52.400;9.818;2023-12-07T01:00:08;2.40;99.90
1948;DHT22;974;52.400;9.818;2023-12-07T01:02:35;2.50;99.90
1948;DHT22;974;52.400;9.818;2023-12-07T01:05:04;2.50;99.90
1948;DHT22;974;52.400;9.818;2023-12-07T01:07:31;2.40;99.90
1948;DHT22;974;52.400;9.818;2023-12-07T01:09:59;2.40;99.90
1948;DHT22;974;52.400;9.818;2023-12-07T01:12:28;2.40;99.90
1948;DHT22;974;52.400;9.818;2023-12-07T01:14:54;2.40;99.90
1948;DHT22;974;52.400;9.818;2023-12-07T01:17:19;2.40;99.90
1948;DHT22;974;52.400;9.818;2023-12-07T01:19:45;2.50;99.90
1948;DHT22;974;52.400;9.818;2023-12-07T01:22:10;2.40;99.90
1948;DHT22;974;52.400;9.818;2023-12-07T01:24:36;2.40;99.90
1948;DHT22;974;52.400;9.818;2023-12-07T01:27:01;2.50;99.90
1948;DHT22;974;52.400;9.818;2023-12-07T01:29:27;2.50;99.90
1948;DHT22;974;52.400;9.818;2023-12-07T01:31:52;2.50;99.90
1948;DHT22;974;52.400;9.818;2023-12-07T01:34:18;2.50;99.90
1948;DHT22;974;52.400;9.818;2023-12-07T01:36:44;2.50;99.90
1948;DHT22;974;52.400;9.818;2023-12-07T01:39:10;2.50;99.90
1948;DHT22;974;52.400;9.818;2023-12-07T01:41:40;2.50;99.90
1948;DHT22;974;52.400;9.818;2023-12-07T01:44:06;2.50;99.90
1948;DHT22;974;52.400;9.818;2023-12-07T01:46:32;2.50;99.90
1948;DHT22;974;52.400;9.818;2023-12-07T01:48:58;2.60;99.90
1948;DHT22;974;52.400;9.818;2023-12-07T01:51:25;2.60;99.90
1948;DHT22;974;52.400;9.818;2023-12-07T01:53:51;2.50;99.90
1948;DHT22;974;52.400;9.818;2023-12-07T01:56:17;2.60;99.90
1948;DHT22;974;52.400;9.818;2023-12-07T01:58:43;2.60;99.90
1948;DHT22;974;52.400;9.818;2023-12-07T02:01:09;2.50;99.90
1948;DHT22;974;52.400;9.818;2023-12-07T02:03:39;2.60;99.90
1948;DHT22;974;52.400;9.818;2023-12-07T02:06:05;2.60;99.90
1948;DHT22;974;52.400;9.818;2023-12-07T02:08:31;2.60;99.90
1948;DHT22;974;52.400;9.818;2023-12-07T02:10:57;2.60;99.90
1948;DHT22;974;52.400;9.818;2023-12-07T02:13:25;2.50;99.90
1948;DHT22;974;52.400;9.818;2023-12-07T02:15:52;2.60;99.90
1948;DHT22;974;52.400;9.818;2023-12-07T02:18:33;2.50;99.90
1948;DHT22;974;52.400;9.818;2023-12-07T02:21:18;2.60;99.90
1948;DHT22;974;52.400;9.818;2023-12-07T02:23:51;2.60;99.90
1948;DHT22;974;52.400;9.818;2023-12-07T02:26:20;2.60;99.90
1948;DHT22;974;52.400;9.818;2023-12-07T02:28:46;2.60;99.90
1948;DHT22;974;52.400;9.818;2023-12-07T02:31:11;2.60;99.90
1948;DHT22;974;52.400;9.818;2023-12-07T02:33:37;2.60;99.90
1948;DHT22;974;52.400;9.818;2023-12-07T02:36:02;2.60;99.90
1948;DHT22;974;52.400;9.818;2023-12-07T02:38:28;2.60;99.90
1948;DHT22;974;52.400;9.818;2023-12-07T02:40:58;2.60;99.90
1948;DHT22;974;52.400;9.818;2023-12-07T02:43:24;2.60;99.90
1948;DHT22;974;52.400;9.818;2023-12-07T02:45:50;2.60;99.90
1948;DHT22;974;52.400;9.818;2023-12-07T02:48:15;2.60;99.90
1948;DHT22;974;52.400;9.818;2023-12-07T02:50:42;2.60;99.90
1948;DHT22;974;52.400;9.818;2023-12-07T02:53:08;2.60;99.90
1948;DHT22;974;52.400;9.818;2023-12-07T02:55:34;2.60;99.90
1948;DHT22;974;52.400;9.818;2023-12-07T02:58:00;2.50;99.90
1948;DHT22;974;52.400;9.818;2023-12-07T03:00:28;2.60;99.90
1948;DHT22;974;52.400;9.818;2023-12-07T03:02:54;2.60;99.90
1948;DHT22;974;52.400;9.818;2023-12-07T03:05:19;2.60;99.90
1948;DHT22;974;52.400;9.818;2023-12-07T03:07:48;2.60;99.90
1948;DHT22;974;52.400;9.818;2023-12-07T03:10:14;2.60;99.90
1948;DHT22;974;52.400;9.818;2023-12-07T03:12:39;2.60;99.90
1948;DHT22;974;52.400;9.818;2023-12-07T03:15:08;2.60;99.90
1948;DHT22;974;52.400;9.818;2023-12-07T03:17:35;2.60;99.90
1948;DHT22;974;52.400;9.818;2023-12-07T03:20:01;2.60;99.90
1948;DHT22;974;52.400;9.818;2023-12-07T03:22:26;2.60;99.90
1948;DHT22;974;52.400;9.818;2023-12-07T03:24:52;2.60;99.90
1948;DHT22;974;52.400;9.818;2023-12-07T03:27:18;2.60;99.90
1948;DHT22;974;52.400;9.818;2023-12-07T03:29:44;2.60;99.90
1948;DHT22;974;52.400;9.818;2023-12-07T03:32:10;2.60;99.90
1948;DHT22;974;52.400;9.818;2023-12-07T03:34:35;2.60;99.90
1948;DHT22;974;52.400;9.818;2023-12-07T03:37:01;2.60;99.90
1948;DHT22;974;52.400;9.818;2023-12-07T03:39:26;2.60;99.90
1948;DHT22;974;52.400;9.818;2023-12-07T03:41:52;2.60;99.90
1948;DHT22;974;52.400;9.818;2023-12-07T03:44:18;2.60;99.90
1948;DHT22;974;52.400;9.818;2023-12-07T03:46:43;2.70;99.90
1948;DHT22;974;52.400;9.818;2023-12-07T03:49:09;2.60;99.90
1948;DHT22;974;52.400;9.818;2023-12-07T03:51:34;2.60;99.90
1948;DHT22;974;52.400;9.818;2023-12-07T03:54:02;2.60;99.90
1948;DHT22;974;52.400;9.818;2023-12-07T03:56:30;2.60;99.90
1948;DHT22;974;52.400;9.818;2023-12-07T03:58:56;2.60;99.90
1948;DHT22;974;52.400;9.818;2023-12-07T04:01:27;2.60;99.90
1948;DHT22;974;52.400;9.818;2023-12-07T04:03:53;2.60;99.90
1948;DHT22;974;52.400;9.818;2023-12-07T04:06:20;2.60;99.90
1948;DHT22;974;52.400;9.818;2023-12-07T04:08:46;2.60;99.90
1948;DHT22;974;52.400;9.818;2023-12-07T04:11:15;2.60;99.90
1948;DHT22;974;52.400;9.818;2023-12-07T04:13:42;2.60;99.90
1948;DHT22;974;52.400;9.818;2023-12-07T04:16:08;2.60;99.90
1948;DHT22;974;52.400;9.818;2023-12-07T04:18:33;2.60;99.90
1948;DHT22;974;52.400;9.818;2023-12-07T04:20:59;2.60;99.90
1948;DHT22;974;52.400;9.818;2023-12-07T04:23:25;2.60;99.90
1948;DHT22;974;52.400;9.818;2023-12-07T04:25:50;2.60;99.90
1948;DHT22;974;52.400;9.818;2023-12-07T04:28:16;2.60;99.90
1948;DHT22;974;52.400;9.818;2023-12-07T04:30:41;2.60;99.90
1948;DHT22;974;52.400;9.818;2023-12-07T04:33:07;2.60;99.90
1948;DHT22;974;52.400;9.818;2023-12-07T04:35:32;2.60;99.90
1948;DHT22;974;52.400;9.818;2023-12-07T04:37:58;2.70;99.90
1948;DHT22;974;52.400;9.818;2023-12-07T04:40:25;2.60;99.90
1948;DHT22;974;52.400;9.818;2023-12-07T04:42:51;2.60;99.90
1948;DHT22;974;52.400;9.818;2023-12-07T04:45:16;2.70;99.90
1948;DHT22;974;52.400;9.818;2023-12-07T04:47:42;2.70;99.90
1948;DHT22;974;52.400;9.818;2023-12-07T04:50:08;2.70;99.90
1948;DHT22;974;52.400;9.818;2023-12-07T04:52:35;2.70;99.90
1948;DHT22;974;52.400;9.818;2023-12-07T04:55:00;2.70;99.90
1948;DHT22;974;52.400;9.818;2023-12-07T04:57:36;2.70;99.90
1948;DHT22;974;52.400;9.818;2023-12-07T05:00:05;2.70;99.90
1948;DHT22;974;52.400;9.818;2023-12-07T05:02:35;2.70;99.90
1948;DHT22;974;52.400;9.818;2023-12-07T05:05:01;2.70;99.90
1948;DHT22;974;52.400;9.818;2023-12-07T05:07:27;2.70;99.90
1948;DHT22;974;52.400;9.818;2023-12-07T05:09:52;2.70;99.90
1948;DHT22;974;52.400;9.818;2023-12-07T05:12:18;2.70;99.90
1948;DHT22;974;52.400;9.818;2023-12-07T05:14:43;2.70;99.90
1948;DHT22;974;52.400;9.818;2023-12-07T05:17:09;2.70;99.90
1948;DHT22;974;52.400;9.818;2023-12-07T05:19:35;2.70;99.90
1948;DHT22;974;52.400;9.818;2023-12-07T05:22:00;2.70;99.90
1948;DHT22;974;52.400;9.818;2023-12-07T05:24:29;2.70;99.90
1948;DHT22;974;52.400;9.818;2023-12-07T05:26:55;2.70;99.90
1948;DHT22;974;52.400;9.818;2023-12-07T05:29:21;2.70;99.90
1948;DHT22;974;52.400;9.818;2023-12-07T05:31:49;2.70;99.90
1948;DHT22;974;52.400;9.818;2023-12-07T05:34:16;2.70;99.90
1948;DHT22;974;52.400;9.818;2023-12-07T05:36:41;2.70;99.90
1948;DHT22;974;52.400;9.818;2023-12-07T05:39:07;2.60;99.90
1948;DHT22;974;52.400;9.818;2023-12-07T05:41:33;2.70;99.90
1948;DHT22;974;52.400;9.818;2023-12-07T05:43:58;2.70;99.90
1948;DHT22;974;52.400;9.818;2023-12-07T05:46:24;2.70;99.90
1948;DHT22;974;52.400;9.818;2023-12-07T05:48:49;2.70;99.90
1948;DHT22;974;52.400;9.818;2023-12-07T05:51:18;2.70;99.90
1948;DHT22;974;52.400;9.818;2023-12-07T05:53:45;2.70;99.90
1948;DHT22;974;52.400;9.818;2023-12-07T05:56:11;2.70;99.90
1948;DHT22;974;52.400;9.818;2023-12-07T05:58:37;2.80;99.90
1948;DHT22;974;52.400;9.818;2023-12-07T06:01:02;2.80;99.90
1948;DHT22;974;52.400;9.818;2023-12-07T06:03:31;2.80;99.90
1948;DHT22;974;52.400;9.818;2023-12-07T06:05:57;2.80;99.90
1948;DHT22;974;52.400;9.818;2023-12-07T06:08:23;2.80;99.90
1948;DHT22;974;52.400;9.818;2023-12-07T06:10:51;2.80;99.90
1948;DHT22;974;52.400;9.818;2023-12-07T06:13:17;2.70;99.90
1948;DHT22;974;52.400;9.818;2023-12-07T06:15:42;2.80;99.90
1948;DHT22;974;52.400;9.818;2023-12-07T06:18:08;2.80;99.90
1948;DHT22;974;52.400;9.818;2023-12-07T06:20:33;2.80;99.90
1948;DHT22;974;52.400;9.818;2023-12-07T06:23:00;2.90;99.90
1948;DHT22;974;52.400;9.818;2023-12-07T06:25:25;2.80;99.90
1948;DHT22;974;52.400;9.818;2023-12-07T06:27:51;2.80;99.90
1948;DHT22;974;52.400;9.818;2023-12-07T06:30:16;2.80;99.90
1948;DHT22;974;52.400;9.818;2023-12-07T06:32:43;2.80;99.90
1948;DHT22;974;52.400;9.818;2023-12-07T06:35:11;2.80;99.90
1948;DHT22;974;52.400;9.818;2023-12-07T06:37:37;2.80;99.90
1948;DHT22;974;52.400;9.818;2023-12-07T06:40:03;2.80;99.90
1948;DHT22;974;52.400;9.818;2023-12-07T06:42:32;2.80;99.90
1948;DHT22;974;52.400;9.818;2023-12-07T06:44:58;2.90;99.90
1948;DHT22;974;52.400;9.818;2023-12-07T06:47:23;2.80;99.90
1948;DHT22;974;52.400;9.818;2023-12-07T06:49:52;2.80;99.90
1948;DHT22;974;52.400;9.818;2023-12-07T06:52:17;2.70;99.90
1948;DHT22;974;52.400;9.818;2023-12-07T06:54:43;2.80;99.90
1948;DHT22;974;52.400;9.818;2023-12-07T06:57:08;2.80;99.90
1948;DHT22;974;52.400;9.818;2023-12-07T06:59:36;2.80;99.90
1948;DHT22;974;52.400;9.818;2023-12-07T07:02:02;2.80;99.90
1948;DHT22;974;52.400;9.818;2023-12-07T07:04:28;2.80;99.90
1948;DHT22;974;52.400;9.818;2023-12-07T07:06:55;2.90;99.90
1948;DHT22;974;52.400;9.818;2023-12-07T07:09:20;2.80;99.90
1948;DHT22;974;52.400;9.818;2023-12-07T07:11:47;2.80;99.90
1948;DHT22;974;52.400;9.818;2023-12-07T07:14:13;2.90;99.90
1948;DHT22;974;52.400;9.818;2023-12-07T07:16:39;2.80;99.90
1948;DHT22;974;52.400;9.818;2023-12-07T07:19:04;2.80;99.90
1948;DHT22;974;52.400;9.818;2023-12-07T07:21:30;2.80;99.90
1948;DHT22;974;52.400;9.818;2023-12-07T07:23:55;2.80;99.90
1948;DHT22;974;52.400;9.818;2023-12-07T07:26:24;2.80;99.90
1948;DHT22;974;52.400;9.818;2023-12-07T07:28:51;2.80;99.90
1948;DHT22;974;52.400;9.818;2023-12-07T07:31:19;2.90;99.90
1948;DHT22;974;52.400;9.818;2023-12-07T07:33:45;2.90;99.90
1948;DHT22;974;52.400;9.818;2023-12-07T07:36:14;2.90;99.90
1948;DHT22;974;52.400;9.818;2023-12-07T07:38:43;2.90;99.90
1948;DHT22;974;52.400;9.818;2023-12-07T07:41:09;2.90;99.90
1948;DHT22;974;52.400;9.818;2023-12-07T07:43:36;3.00;99.90
1948;DHT22;974;52.400;9.818;2023-12-07T07:46:02;2.90;99.90
1948;DHT22;974;52.400;9.818;2023-12-07T07:48:28;2.90;99.90
1948;DHT22;974;52.400;9.818;2023-12-07T07:50:53;2.90;99.90
1948;DHT22;974;52.400;9.818;2023-12-07T07:53:19;2.90;99.90
1948;DHT22;974;52.400;9.818;2023-12-07T07:55:44;3.00;99.90
1948;DHT22;974;52.400;9.818;2023-12-07T07:58:10;3.10;99.90
1948;DHT22;974;52.400;9.818;2023-12-07T08:00:35;3.00;99.90
1948;DHT22;974;52.400;9.818;2023-12-07T08:03:04;3.00;99.90
1948;DHT22;974;52.400;9.818;2023-12-07T08:05:30;3.00;99.90
1948;DHT22;974;52.400;9.818;2023-12-07T08:07:56;3.00;99.90
1948;DHT22;974;52.400;9.818;2023-12-07T08:10:21;3.00;99.90
1948;DHT22;974;52.400;9.818;2023-12-07T08:12:47;3.00;99.90
1948;DHT22;974;52.400;9.818;2023-12-07T08:15:12;3.10;99.90
1948;DHT22;974;52.400;9.818;2023-12-07T08:17:39;3.10;99.90
1948;DHT22;974;52.400;9.818;2023-12-07T08:20:07;3.10;99.90
1948;DHT22;974;52.400;9.818;2023-12-07T08:22:32;3.10;99.90
1948;DHT22;974;52.400;9.818;2023-12-07T08:24:58;3.00;99.90
1948;DHT22;974;52.400;9.818;2023-12-07T08:27:25;3.10;99.90
1948;DHT22;974;52.400;9.818;2023-12-07T08:29:51;3.10;99.90
1948;DHT22;974;52.400;9.818;2023-12-07T08:32:16;3.10;99.90
1948;DHT22;974;52.400;9.818;2023-12-07T08:34:44;3.10;99.90
1948;DHT22;974;52.400;9.818;2023-12-07T08:37:10;3.10;99.90
1948;DHT22;974;52.400;9.818;2023-12-07T08:39:35;3.10;99.90
1948;DHT22;974;52.400;9.818;2023-12-07T08:42:01;3.20;99.90
1948;DHT22;974;52.400;9.818;2023-12-07T08:44:27;3.20;99.90
1948;DHT22;974;52.400;9.818;2023-12-07T08:46:52;3.20;99.90
1948;DHT22;974;52.400;9.818;2023-12-07T08:49:18;3.20;99.90
1948;DHT22;974;52.400;9.818;2023-12-07T08:51:43;3.20;99.90
1948;DHT22;974;52.400;9.818;2023-12-07T08:54:09;3.20;99.90
1948;DHT22;974;52.400;9.818;2023-12-07T08:56:34;3.30;99.90
1948;DHT22;974;52.400;9.818;2023-12-07T08:59:00;3.20;99.90
1948;DHT22;974;52.400;9.818;2023-12-07T09:01:25;3.20;99.90
1948;DHT22;974;52.400;9.818;2023-12-07T09:03:51;3.30;99.90
1948;DHT22;974;52.400;9.818;2023-12-07T09:06:17;3.30;99.90
1948;DHT22;974;52.400;9.818;2023-12-07T09:08:43;3.20;99.90
1948;DHT22;974;52.400;9.818;2023-12-07T09:11:09;3.30;99.90
1948;DHT22;974;52.400;9.818;2023-12-07T09:13:35;3.30;99.90
1948;DHT22;974;52.400;9.818;2023-12-07T09:16:00;3.30;99.90
1948;DHT22;974;52.400;9.818;2023-12-07T09:18:26;3.30;99.90
1948;DHT22;974;52.400;9.818;2023-12-07T09:20:51;3.30;99.90
1948;DHT22;974;52.400;9.818;2023-12-07T09:23:17;3.30;99.90
1948;DHT22;974;52.400;9.818;2023-12-07T09:25:43;3.30;99.90
1948;DHT22;974;52.400;9.818;2023-12-07T09:28:08;3.30;99.90
1948;DHT22;974;52.400;9.818;2023-12-07T09:30:34;3.30;99.90
1948;DHT22;974;52.400;9.818;2023-12-07T09:33:00;3.30;99.90
1948;DHT22;974;52.400;9.818;2023-12-07T09:35:28;3.40;99.90
1948;DHT22;974;52.400;9.818;2023-12-07T09:37:53;3.50;99.90
1948;DHT22;974;52.400;9.818;2023-12-07T09:40:20;3.40;99.90
1948;DHT22;974;52.400;9.818;2023-12-07T09:42:47;3.40;99.90
1948;DHT22;974;52.400;9.818;2023-12-07T09:45:16;3.30;99.90
1948;DHT22;974;52.400;9.818;2023-12-07T09:47:56;3.30;99.90
1948;DHT22;974;52.400;9.818;2023-12-07T09:50:26;3.20;99.90
1948;DHT22;974;52.400;9.818;2023-12-07T09:52:54;3.30;99.90
1948;DHT22;974;52.400;9.818;2023-12-07T09:55:22;3.40;99.90
1948;DHT22;974;52.400;9.818;2023-12-07T09:57:48;3.30;99.90
1948;DHT22;974;52.400;9.818;2023-12-07T10:00:14;3.40;99.90
1948;DHT22;974;52.400;9.818;2023-12-07T10:02:41;3.40;99.90
1948;DHT22;974;52.400;9.818;2023-12-07T10:05:09;3.40;99.90
1948;DHT22;974;52.400;9.818;2023-12-07T10:07:45;3.50;99.90
1948;DHT22;974;52.400;9.818;2023-12-07T10:10:15;3.50;99.90
1948;DHT22;974;52.400;9.818;2023-12-07T10:12:46;3.40;99.90
1948;DHT22;974;52.400;9.818;2023-12-07T10:15:14;3.50;99.90
1948;DHT22;974;52.400;9.818;2023-12-07T10:17:54;3.50;99.90
1948;DHT22;974;52.400;9.818;2023-12-07T10:20:21;3.50;99.90
1948;DHT22;974;52.400;9.818;2023-12-07T10:23:07;3.50;99.90
1948;DHT22;974;52.400;9.818;2023-12-07T10:25:38;3.50;99.90
1948;DHT22;974;52.400;9.818;2023-12-07T10:28:03;3.60;99.90
1948;DHT22;974;52.400;9.818;2023-12-07T10:30:32;3.40;99.90
1948;DHT22;974;52.400;9.818;2023-12-07T10:33:01;3.50;99.90
1948;DHT22;974;52.400;9.818;2023-12-07T10:35:27;3.50;99.90
1948;DHT22;974;52.400;9.818;2023-12-07T10:37:54;3.50;99.90
1948;DHT22;974;52.400;9.818;2023-12-07T10:40:20;3.50;99.90
1948;DHT22;974;52.400;9.818;2023-12-07T10:42:48;3.60;99.90
1948;DHT22;974;52.400;9.818;2023-12-07T10:45:14;3.50;99.90
1948;DHT22;974;52.400;9.818;2023-12-07T10:47:43;3.60;99.90
1948;DHT22;974;52.400;9.818;2023-12-07T10:50:09;3.60;99.90
1948;DHT22;974;52.400;9.818;2023-12-07T10:52:39;3.60;99.90
1948;DHT22;974;52.400;9.818;2023-12-07T10:55:07;3.50;99.90
1948;DHT22;974;52.400;9.818;2023-12-07T10:57:36;3.60;99.90
1948;DHT22;974;52.400;9.818;2023-12-07T11:00:03;3.70;99.90
1948;DHT22;974;52.400;9.818;2023-12-07T11:02:29;3.60;99.90
1948;DHT22;974;52.400;9.818;2023-12-07T11:04:58;3.70;99.90
1948;DHT22;974;52.400;9.818;2023-12-07T11:07:33;3.70;99.90
1948;DHT22;974;52.400;9.818;2023-12-07T11:10:22;3.70;99.90
1948;DHT22;974;52.400;9.818;2023-12-07T11:15:40;3.70;99.90
1948;DHT22;974;52.400;9.818;2023-12-07T11:18:06;3.70;99.90
1948;DHT22;974;52.400;9.818;2023-12-07T11:20:45;3.70;99.90
1948;DHT22;974;52.400;9.818;2023-12-07T11:23:17;3.70;99.90
1948;DHT22;974;52.400;9.818;2023-12-07T11:25:46;3.80;99.90
1948;DHT22;974;52.400;9.818;2023-12-07T11:28:15;3.80;99.90
1948;DHT22;974;52.400;9.818;2023-12-07T11:30:49;3.70;99.90
1948;DHT22;974;52.400;9.818;2023-12-07T11:33:15;3.80;99.90
1948;DHT22;974;52.400;9.818;2023-12-07T11:38:29;3.80;99.90
1948;DHT22;974;52.400;9.818;2023-12-07T11:40:56;3.90;99.90
1948;DHT22;974;52.400;9.818;2023-12-07T11:46:01;3.80;99.90
1948;DHT22;974;52.400;9.818;2023-12-07T11:48:26;3.90;99.90
1948;DHT22;974;52.400;9.818;2023-12-07T11:51:03;3.90;99.90
1948;DHT22;974;52.400;9.818;2023-12-07T11:53:34;3.90;99.90
1948;DHT22;974;52.400;9.818;2023-12-07T11:56:04;3.90;99.90
1948;DHT22;974;52.400;9.818;2023-12-07T11:58:32;3.90;99.90
1948;DHT22;974;52.400;9.818;2023-12-07T12:00:58;3.90;99.90
1948;DHT22;974;52.400;9.818;2023-12-07T12:03:24;3.90;99.90
1948;DHT22;974;52.400;9.818;2023-12-07T12:05:50;4.00;99.90
1948;DHT22;974;52.400;9.818;2023-12-07T12:08:17;3.90;99.90
1948;DHT22;974;52.400;9.818;2023-12-07T12:10:43;3.90;99.90
1948;DHT22;974;52.400;9.818;2023-12-07T12:13:09;4.00;99.90
1948;DHT22;974;52.400;9.818;2023-12-07T12:15:34;4.00;99.90
1948;DHT22;974;52.400;9.818;2023-12-07T12:18:00;4.00;99.90
1948;DHT22;974;52.400;9.818;2023-12-07T12:20:26;4.00;99.90
1948;DHT22;974;52.400;9.818;2023-12-07T12:22:52;4.10;99.90
1948;DHT22;974;52.400;9.818;2023-12-07T12:25:31;4.00;99.90
1948;DHT22;974;52.400;9.818;2023-12-07T12:28:01;3.90;99.90
1948;DHT22;974;52.400;9.818;2023-12-07T12:30:28;4.00;99.90
1948;DHT22;974;52.400;9.818;2023-12-07T12:32:55;4.00;99.90
1948;DHT22;974;52.400;9.818;2023-12-07T12:35:21;4.00;99.90
1948;DHT22;974;52.400;9.818;2023-12-07T12:37:47;4.10;99.90
1948;DHT22;974;52.400;9.818;2023-12-07T12:40:18;4.00;99.90
1948;DHT22;974;52.400;9.818;2023-12-07T12:42:45;4.00;99.90
1948;DHT22;974;52.400;9.818;2023-12-07T12:45:12;4.00;99.90
1948;DHT22;974;52.400;9.818;2023-12-07T12:47:39;3.90;99.90
1948;DHT22;974;52.400;9.818;2023-12-07T12:50:06;3.90;99.90
1948;DHT22;974;52.400;9.818;2023-12-07T12:52:32;4.00;99.90
1948;DHT22;974;52.400;9.818;2023-12-07T12:55:01;4.00;99.90
1948;DHT22;974;52.400;9.818;2023-12-07T12:57:28;4.00;99.90
1948;DHT22;974;52.400;9.818;2023-12-07T12:59:54;4.00;99.90
1948;DHT22;974;52.400;9.818;2023-12-07T13:02:22;3.90;99.90
1948;DHT22;974;52.400;9.818;2023-12-07T13:04:47;3.80;99.90
1948;DHT22;974;52.400;9.818;2023-12-07T13:07:19;3.90;99.90
1948;DHT22;974;52.400;9.818;2023-12-07T13:09:45;3.90;99.90
1948;DHT22;974;52.400;9.818;2023-12-07T13:12:11;3.90;99.90
1948;DHT22;974;52.400;9.818;2023-12-07T13:14:36;3.90;99.90
1948;DHT22;974;52.400;9.818;2023-12-07T13:17:06;3.90;99.90
1948;DHT22;974;52.400;9.818;2023-12-07T13:19:35;3.80;99.90
1948;DHT22;974;52.400;9.818;2023-12-07T13:22:01;3.80;99.90
1948;DHT22;974;52.400;9.818;2023-12-07T13:24:28;3.80;99.90
1948;DHT22;974;52.400;9.818;2023-12-07T13:26:54;3.80;99.90
1948;DHT22;974;52.400;9.818;2023-12-07T13:29:23;3.80;99.90
1948;DHT22;974;52.400;9.818;2023-12-07T13:31:48;3.90;99.90
1948;DHT22;974;52.400;9.818;2023-12-07T13:34:15;3.90;99.90
1948;DHT22;974;52.400;9.818;2023-12-07T13:36:40;3.90;99.90
1948;DHT22;974;52.400;9.818;2023-12-07T13:39:06;3.80;99.90
1948;DHT22;974;52.400;9.818;2023-12-07T13:41:34;3.90;99.90
1948;DHT22;974;52.400;9.818;2023-12-07T13:43:59;3.80;99.90
1948;DHT22;974;52.400;9.818;2023-12-07T13:46:26;3.80;99.90
1948;DHT22;974;52.400;9.818;2023-12-07T13:48:52;3.90;99.90
1948;DHT22;974;52.400;9.818;2023-12-07T13:51:18;3.90;99.90
1948;DHT22;974;52.400;9.818;2023-12-07T13:53:44;3.90;99.90
1948;DHT22;974;52.400;9.818;2023-12-07T13:56:09;3.90;99.90
1948;DHT22;974;52.400;9.818;2023-12-07T13:58:35;3.90;99.90
1948;DHT22;974;52.400;9.818;2023-12-07T14:01:01;3.80;99.90
1948;DHT22;974;52.400;9.818;2023-12-07T14:03:27;3.90;99.90
1948;DHT22;974;52.400;9.818;2023-12-07T14:05:52;3.90;99.90
1948;DHT22;974;52.400;9.818;2023-12-07T14:08:17;3.80;99.90
1948;DHT22;974;52.400;9.818;2023-12-07T14:10:44;3.80;99.90
1948;DHT22;974;52.400;9.818;2023-12-07T14:13:10;3.80;99.90
1948;DHT22;974;52.400;9.818;2023-12-07T14:15:41;3.80;99.90
1948;DHT22;974;52.400;9.818;2023-12-07T14:18:07;3.80;99.90
1948;DHT22;974;52.400;9.818;2023-12-07T14:20:32;3.80;99.90
1948;DHT22;974;52.400;9.818;2023-12-07T14:22:58;3.80;99.90
1948;DHT22;974;52.400;9.818;2023-12-07T14:25:29;3.80;99.90
1948;DHT22;974;52.400;9.818;2023-12-07T14:27:55;3.80;99.90
1948;DHT22;974;52.400;9.818;2023-12-07T14:30:21;3.80;99.90
1948;DHT22;974;52.400;9.818;2023-12-07T14:32:48;3.80;99.90
1948;DHT22;974;52.400;9.818;2023-12-07T14:35:17;3.70;99.90
1948;DHT22;974;52.400;9.818;2023-12-07T14:37:43;3.70;99.90
1948;DHT22;974;52.400;9.818;2023-12-07T14:40:09;3.60;99.90
1948;DHT22;974;52.400;9.818;2023-12-07T14:42:35;3.70;99.90
1948;DHT22;974;52.400;9.818;2023-12-07T14:45:01;3.70;99.90
1948;DHT22;974;52.400;9.818;2023-12-07T14:47:26;3.60;99.90
1948;DHT22;974;52.400;9.818;2023-12-07T14:49:52;3.60;99.90
1948;DHT22;974;52.400;9.818;2023-12-07T14:52:17;3.60;99.90
1948;DHT22;974;52.400;9.818;2023-12-07T14:54:43;3.50;99.90
1948;DHT22;974;52.400;9.818;2023-12-07T14:57:08;3.40;99.90
1948;DHT22;974;52.400;9.818;2023-12-07T14:59:35;3.50;99.90
1948;DHT22;974;52.400;9.818;2023-12-07T15:02:01;3.40;99.90
1948;DHT22;974;52.400;9.818;2023-12-07T15:04:27;3.30;99.90
1948;DHT22;974;52.400;9.818;2023-12-07T15:06:52;3.40;99.90
1948;DHT22;974;52.400;9.818;2023-12-07T15:09:23;3.30;99.90
1948;DHT22;974;52.400;9.818;2023-12-07T15:11:48;3.30;99.90
1948;DHT22;974;52.400;9.818;2023-12-07T15:14:14;3.20;99.90
1948;DHT22;974;52.400;9.818;2023-12-07T15:16:39;3.10;99.90
1948;DHT22;974;52.400;9.818;2023-12-07T15:19:05;3.10;99.90
1948;DHT22;974;52.400;9.818;2023-12-07T15:21:31;3.00;99.90
1948;DHT22;974;52.400;9.818;2023-12-07T15:23:58;2.90;99.90
1948;DHT22;974;52.400;9.818;2023-12-07T15:26:24;2.80;99.90
1948;DHT22;974;52.400;9.818;2023-12-07T15:28:50;2.70;99.90
1948;DHT22;974;52.400;9.818;2023-12-07T15:31:15;2.60;99.90
1948;DHT22;974;52.400;9.818;2023-12-07T15:33:41;2.50;99.90
1948;DHT22;974;52.400;9.818;2023-12-07T15:36:06;2.40;99.90
1948;DHT22;974;52.400;9.818;2023-12-07T15:38:32;2.30;99.90
1948;DHT22;974;52.400;9.818;2023-12-07T15:40:58;2.30;99.90
1948;DHT22;974;52.400;9.818;2023-12-07T15:43:25;2.10;99.90
1948;DHT22;974;52.400;9.818;2023-12-07T15:45:51;2.00;99.90
1948;DHT22;974;52.400;9.818;2023-12-07T15:48:17;1.90;99.90
1948;DHT22;974;52.400;9.818;2023-12-07T15:50:43;1.90;99.90
1948;DHT22;974;52.400;9.818;2023-12-07T15:53:09;1.70;99.90
1948;DHT22;974;52.400;9.818;2023-12-07T15:55:34;1.70;99.90
1948;DHT22;974;52.400;9.818;2023-12-07T15:58:00;1.60;99.90
1948;DHT22;974;52.400;9.818;2023-12-07T16:00:25;1.40;99.90
1948;DHT22;974;52.400;9.818;2023-12-07T16:02:51;1.50;99.90
1948;DHT22;974;52.400;9.818;2023-12-07T16:05:18;1.20;99.90
1948;DHT22;974;52.400;9.818;2023-12-07T16:07:47;1.20;99.90
1948;DHT22;974;52.400;9.818;2023-12-07T16:10:12;1.20;99.90
1948;DHT22;974;52.400;9.818;2023-12-07T16:12:39;1.20;99.90
1948;DHT22;974;52.400;9.818;2023-12-07T16:15:05;1.10;99.90
1948;DHT22;974;52.400;9.818;2023-12-07T16:17:31;1.00;99.90
1948;DHT22;974;52.400;9.818;2023-12-07T16:19:57;0.90;99.90
1948;DHT22;974;52.400;9.818;2023-12-07T16:22:23;1.00;99.90
1948;DHT22;974;52.400;9.818;2023-12-07T16:24:49;1.00;99.90
1948;DHT22;974;52.400;9.818;2023-12-07T16:27:16;0.90;99.90
1948;DHT22;974;52.400;9.818;2023-12-07T16:29:42;0.80;99.90
1948;DHT22;974;52.400;9.818;2023-12-07T16:32:07;0.80;99.90
1948;DHT22;974;52.400;9.818;2023-12-07T16:34:33;0.70;99.90
1948;DHT22;974;52.400;9.818;2023-12-07T16:36:58;0.70;99.90
1948;DHT22;974;52.400;9.818;2023-12-07T16:39:24;0.70;99.90